Fox Creek, Idaho
Current Conditions -  °F | °C
As of 2:56 PM on Sunday 25 Jan 2015 (Local Time) from KDIJ Reporting Station
Clear Clear  
Wind Chill: 34°   Ceiling: Unl
Heat Index: 34°   Visibility: 10mi
Dew Point: 31°   Wind: 3mph
Humidity: 89%   Direction: 270°W
Pressure: 30.41"   Gusts: NA
Location:  43.6065°N, 111.138°W
Report Text: KDIJ 252156Z AUTO 27003KT 10SM CLR 01/M01 A3041 RMK AO2 T00111005 SLP299
Loading
Personal Weather Stations






























Interactive Weather Map New forecast layout! Learn more

10-Day Weather Forecast

Advertisements
Track Severe Weather on mobile